Terminal Aerodrome Forecast
Issued by NWS

Home | Current Version | Previous Version | Text Only | Print | Product List | Glossary On
Versions: 1 2 3 4 5 6 7 8 9 10 11 12 13 14 15 16 17 18 19 20 21
000
FTUS46 KSEW 280537
TAFOLM
TAF
KOLM 280537Z 2806/2906 21008KT P6SM -RA BKN022 OVC040
     FM281200 19008KT 4SM -RA BR SCT007 OVC015
     FM281800 21013G20KT P6SM -RA BKN022 OVC050
     FM290300 19009KT 5SM -RA BR BKN015 OVC030=

USA.gov is the U.S. government's official web portal to all federal, state and local government web resources and services.